Terminal Aerodrome Forecast
Issued by NWS Jackson, MS

Home | Current Version | Previous Version | Text Only | Print | Product List | Glossary On
Versions: 1 2 3 4 5 6 7 8 9 10 11 12 13
000
FTUS44 KMEG 271133
TAFTUP
TAF
KTUP 271133Z 2712/2812 17003KT P6SM VCSH BKN012
     FM271500 17006KT P6SM VCSH BKN020
     FM271800 16008KT P6SM VCTS BKN035CB
      TEMPO 2720/2724 4SM -TSRA BKN025CB
     FM280100 21007KT P6SM VCTS BKN035CB
     FM280400 VRB03KT 6SM BR VCTS OVC015CB=

USA.gov is the U.S. government's official web portal to all federal, state and local government web resources and services.